aviador You're here:

PAHN Decoded Metar

HAINES in AK, USA
Report Time2018-01-19 10:54:00
UTC Time2018-01-19 11:01:26
Flight Rules vfr VFR
Wind290° at 13 kt
W.Decomp.*RWY 26: 12.8 kt HW 2.3 kt RCW
W.Rank290° ranks 2
Current wind is above 290° avg. (9.2)
Visibility9999 m
Phenomena:N/A
Clouds:N/A
Expected CloudBase > 800 ft AGL from Temp-Dew spread
CeilingNone
Temp-4°C (ISA -19)
Dew Point-6°C (86% RH)
AAT-11.4°C
QNH1001 hPa
Density Alt-1,857 ft
Elevation16 ft
Report Wrong Elevation
Raw Report
PAHN 191054Z AUTO 29013KT 10SM CLR M04/M06 A2957 RMK AO2 SLP017
T10391061 TSNO=

Extra information for PAHN:More info

Metar Taf Metar & Taf Last 4 Metars F.Rules Stats Wind Profile Meteogram Temp Stats Airport Information Weather charts Add Link Nearby VenuesMetar ALERT Operation Metar Decoded Social comments

AIRNAV info for PAHN